sensor_id;sensor_type;location;lat;lon;timestamp;P1;durP1;ratioP1;P2;durP2;ratioP2
30874;SDS011;17581;43.222;27.924;2022-12-29T00:01:17;30.23;;;13.23;;
30874;SDS011;17581;43.222;27.924;2022-12-29T00:03:45;33.70;;;12.32;;
30874;SDS011;17581;43.222;27.924;2022-12-29T00:06:11;25.90;;;11.63;;
30874;SDS011;17581;43.222;27.924;2022-12-29T00:08:36;23.50;;;10.15;;
30874;SDS011;17581;43.222;27.924;2022-12-29T00:11:06;25.85;;;10.50;;
30874;SDS011;17581;43.222;27.924;2022-12-29T00:13:38;21.90;;;10.93;;
30874;SDS011;17581;43.222;27.924;2022-12-29T00:16:23;26.23;;;10.43;;
30874;SDS011;17581;43.222;27.924;2022-12-29T00:18:48;33.88;;;10.70;;
30874;SDS011;17581;43.222;27.924;2022-12-29T00:21:15;25.23;;;9.18;;
30874;SDS011;17581;43.222;27.924;2022-12-29T00:24:00;30.17;;;10.38;;
30874;SDS011;17581;43.222;27.924;2022-12-29T00:26:45;32.08;;;10.57;;
30874;SDS011;17581;43.222;27.924;2022-12-29T00:29:30;30.17;;;10.85;;
30874;SDS011;17581;43.222;27.924;2022-12-29T00:32:14;18.42;;;8.80;;
30874;SDS011;17581;43.222;27.924;2022-12-29T00:34:58;23.67;;;9.68;;
30874;SDS011;17581;43.222;27.924;2022-12-29T00:37:37;17.83;;;8.60;;
30874;SDS011;17581;43.222;27.924;2022-12-29T00:40:24;25.10;;;9.15;;
30874;SDS011;17581;43.222;27.924;2022-12-29T00:43:08;31.08;;;9.45;;
30874;SDS011;17581;43.222;27.924;2022-12-29T00:45:52;20.80;;;9.40;;
30874;SDS011;17581;43.222;27.924;2022-12-29T00:48:17;49.25;;;17.45;;
30874;SDS011;17581;43.222;27.924;2022-12-29T00:51:01;21.73;;;9.90;;
30874;SDS011;17581;43.222;27.924;2022-12-29T00:53:27;34.05;;;9.00;;
30874;SDS011;17581;43.222;27.924;2022-12-29T00:55:52;31.52;;;9.23;;
30874;SDS011;17581;43.222;27.924;2022-12-29T00:58:18;21.52;;;10.15;;
30874;SDS011;17581;43.222;27.924;2022-12-29T01:00:43;25.30;;;8.15;;
30874;SDS011;17581;43.222;27.924;2022-12-29T01:03:09;15.98;;;8.63;;
30874;SDS011;17581;43.222;27.924;2022-12-29T01:05:37;18.52;;;9.20;;
30874;SDS011;17581;43.222;27.924;2022-12-29T01:08:03;18.67;;;8.93;;
30874;SDS011;17581;43.222;27.924;2022-12-29T01:10:29;30.10;;;8.98;;
30874;SDS011;17581;43.222;27.924;2022-12-29T01:12:54;15.60;;;7.55;;
30874;SDS011;17581;43.222;27.924;2022-12-29T01:15:19;28.23;;;9.45;;
30874;SDS011;17581;43.222;27.924;2022-12-29T01:17:45;19.13;;;7.93;;
30874;SDS011;17581;43.222;27.924;2022-12-29T01:20:11;26.23;;;9.18;;
30874;SDS011;17581;43.222;27.924;2022-12-29T01:22:37;26.15;;;9.15;;
30874;SDS011;17581;43.222;27.924;2022-12-29T01:25:03;25.00;;;11.05;;
30874;SDS011;17581;43.222;27.924;2022-12-29T01:27:29;26.38;;;10.25;;
30874;SDS011;17581;43.222;27.924;2022-12-29T01:29:54;23.48;;;9.85;;
30874;SDS011;17581;43.222;27.924;2022-12-29T01:32:20;16.33;;;9.18;;
30874;SDS011;17581;43.222;27.924;2022-12-29T01:34:45;19.08;;;8.77;;
30874;SDS011;17581;43.222;27.924;2022-12-29T01:37:11;21.88;;;7.97;;
30874;SDS011;17581;43.222;27.924;2022-12-29T01:39:37;24.40;;;8.93;;
30874;SDS011;17581;43.222;27.924;2022-12-29T01:42:02;20.10;;;8.48;;
30874;SDS011;17581;43.222;27.924;2022-12-29T01:47:26;18.52;;;8.18;;
30874;SDS011;17581;43.222;27.924;2022-12-29T01:49:56;24.25;;;8.98;;
30874;SDS011;17581;43.222;27.924;2022-12-29T01:52:26;19.35;;;9.02;;
30874;SDS011;17581;43.222;27.924;2022-12-29T01:54:54;19.65;;;7.88;;
30874;SDS011;17581;43.222;27.924;2022-12-29T01:57:24;19.63;;;8.90;;
30874;SDS011;17581;43.222;27.924;2022-12-29T01:59:55;19.13;;;7.22;;
30874;SDS011;17581;43.222;27.924;2022-12-29T02:02:24;27.15;;;8.25;;
30874;SDS011;17581;43.222;27.924;2022-12-29T02:04:50;31.65;;;8.32;;
30874;SDS011;17581;43.222;27.924;2022-12-29T02:07:19;18.50;;;6.55;;
30874;SDS011;17581;43.222;27.924;2022-12-29T02:09:47;22.38;;;6.80;;
30874;SDS011;17581;43.222;27.924;2022-12-29T02:12:13;25.55;;;9.38;;
30874;SDS011;17581;43.222;27.924;2022-12-29T02:14:39;17.45;;;7.90;;
30874;SDS011;17581;43.222;27.924;2022-12-29T02:25:48;26.25;;;10.65;;
30874;SDS011;17581;43.222;27.924;2022-12-29T02:38:59;32.53;;;12.25;;
30874;SDS011;17581;43.222;27.924;2022-12-29T02:47:20;26.10;;;10.00;;
30874;SDS011;17581;43.222;27.924;2022-12-29T02:52:25;20.05;;;7.97;;
30874;SDS011;17581;43.222;27.924;2022-12-29T02:54:56;17.38;;;8.52;;
30874;SDS011;17581;43.222;27.924;2022-12-29T03:00:08;20.73;;;8.73;;
30874;SDS011;17581;43.222;27.924;2022-12-29T03:18:46;22.47;;;7.97;;
30874;SDS011;17581;43.222;27.924;2022-12-29T03:21:43;31.25;;;8.48;;
30874;SDS011;17581;43.222;27.924;2022-12-29T03:24:32;24.30;;;8.55;;
30874;SDS011;17581;43.222;27.924;2022-12-29T03:27:04;20.27;;;7.97;;
30874;SDS011;17581;43.222;27.924;2022-12-29T03:29:33;23.10;;;9.20;;
30874;SDS011;17581;43.222;27.924;2022-12-29T03:32:04;22.50;;;7.80;;
30874;SDS011;17581;43.222;27.924;2022-12-29T03:34:32;29.00;;;9.23;;
30874;SDS011;17581;43.222;27.924;2022-12-29T03:37:03;36.65;;;15.07;;
30874;SDS011;17581;43.222;27.924;2022-12-29T03:39:34;19.98;;;7.50;;
30874;SDS011;17581;43.222;27.924;2022-12-29T03:42:04;15.63;;;6.90;;
30874;SDS011;17581;43.222;27.924;2022-12-29T03:44:32;20.58;;;7.32;;
30874;SDS011;17581;43.222;27.924;2022-12-29T03:47:03;19.27;;;8.27;;
30874;SDS011;17581;43.222;27.924;2022-12-29T03:49:29;16.85;;;8.15;;
30874;SDS011;17581;43.222;27.924;2022-12-29T03:51:54;23.73;;;7.88;;
30874;SDS011;17581;43.222;27.924;2022-12-29T03:54:20;13.45;;;7.15;;
30874;SDS011;17581;43.222;27.924;2022-12-29T03:56:45;22.08;;;8.20;;
30874;SDS011;17581;43.222;27.924;2022-12-29T03:59:11;27.38;;;9.45;;
30874;SDS011;17581;43.222;27.924;2022-12-29T04:01:36;37.15;;;8.55;;
30874;SDS011;17581;43.222;27.924;2022-12-29T04:04:02;22.00;;;9.20;;
30874;SDS011;17581;43.222;27.924;2022-12-29T04:06:27;21.42;;;10.23;;
30874;SDS011;17581;43.222;27.924;2022-12-29T04:08:52;23.80;;;9.07;;
30874;SDS011;17581;43.222;27.924;2022-12-29T04:11:18;20.45;;;9.40;;
30874;SDS011;17581;43.222;27.924;2022-12-29T04:13:43;25.50;;;10.48;;
30874;SDS011;17581;43.222;27.924;2022-12-29T04:16:09;18.88;;;8.52;;
30874;SDS011;17581;43.222;27.924;2022-12-29T04:18:34;24.60;;;10.23;;
30874;SDS011;17581;43.222;27.924;2022-12-29T04:21:00;26.48;;;8.48;;
30874;SDS011;17581;43.222;27.924;2022-12-29T04:23:26;23.65;;;9.57;;
30874;SDS011;17581;43.222;27.924;2022-12-29T04:25:52;20.13;;;8.98;;
30874;SDS011;17581;43.222;27.924;2022-12-29T04:28:18;28.08;;;9.07;;
30874;SDS011;17581;43.222;27.924;2022-12-29T04:30:44;20.33;;;9.30;;
30874;SDS011;17581;43.222;27.924;2022-12-29T04:33:10;20.35;;;8.82;;
30874;SDS011;17581;43.222;27.924;2022-12-29T04:35:35;38.70;;;10.32;;
30874;SDS011;17581;43.222;27.924;2022-12-29T04:38:01;30.00;;;9.93;;
30874;SDS011;17581;43.222;27.924;2022-12-29T04:40:26;18.73;;;10.20;;
30874;SDS011;17581;43.222;27.924;2022-12-29T04:42:52;32.55;;;9.95;;
30874;SDS011;17581;43.222;27.924;2022-12-29T04:45:17;34.65;;;10.25;;
30874;SDS011;17581;43.222;27.924;2022-12-29T04:47:43;41.97;;;11.35;;
30874;SDS011;17581;43.222;27.924;2022-12-29T04:50:09;54.05;;;13.40;;
30874;SDS011;17581;43.222;27.924;2022-12-29T04:52:35;78.38;;;14.05;;
30874;SDS011;17581;43.222;27.924;2022-12-29T04:55:00;121.13;;;20.33;;
30874;SDS011;17581;43.222;27.924;2022-12-29T04:57:26;91.15;;;14.48;;
30874;SDS011;17581;43.222;27.924;2022-12-29T04:59:52;73.07;;;15.32;;
30874;SDS011;17581;43.222;27.924;2022-12-29T05:02:17;57.60;;;13.75;;
30874;SDS011;17581;43.222;27.924;2022-12-29T05:04:43;110.72;;;19.50;;
30874;SDS011;17581;43.222;27.924;2022-12-29T05:07:08;89.57;;;18.27;;
30874;SDS011;17581;43.222;27.924;2022-12-29T05:09:34;64.68;;;17.27;;
30874;SDS011;17581;43.222;27.924;2022-12-29T05:11:59;110.25;;;20.00;;
30874;SDS011;17581;43.222;27.924;2022-12-29T05:14:25;76.53;;;17.27;;
30874;SDS011;17581;43.222;27.924;2022-12-29T05:16:51;78.47;;;15.65;;
30874;SDS011;17581;43.222;27.924;2022-12-29T05:19:16;59.67;;;15.60;;
30874;SDS011;17581;43.222;27.924;2022-12-29T05:21:42;76.00;;;17.67;;
30874;SDS011;17581;43.222;27.924;2022-12-29T05:24:08;79.15;;;17.55;;
30874;SDS011;17581;43.222;27.924;2022-12-29T05:26:33;54.33;;;14.40;;
30874;SDS011;17581;43.222;27.924;2022-12-29T05:28:59;81.15;;;17.23;;
30874;SDS011;17581;43.222;27.924;2022-12-29T05:31:25;60.85;;;16.13;;
30874;SDS011;17581;43.222;27.924;2022-12-29T05:33:51;51.63;;;14.13;;
30874;SDS011;17581;43.222;27.924;2022-12-29T05:36:16;64.30;;;15.63;;
30874;SDS011;17581;43.222;27.924;2022-12-29T05:38:42;55.30;;;15.75;;
30874;SDS011;17581;43.222;27.924;2022-12-29T05:41:07;58.38;;;18.20;;
30874;SDS011;17581;43.222;27.924;2022-12-29T05:43:33;45.80;;;15.68;;
30874;SDS011;17581;43.222;27.924;2022-12-29T05:45:58;51.38;;;15.85;;
30874;SDS011;17581;43.222;27.924;2022-12-29T05:48:24;53.90;;;16.23;;
30874;SDS011;17581;43.222;27.924;2022-12-29T05:50:50;46.45;;;13.27;;
30874;SDS011;17581;43.222;27.924;2022-12-29T05:53:16;56.38;;;14.90;;
30874;SDS011;17581;43.222;27.924;2022-12-29T05:55:43;57.35;;;15.48;;
30874;SDS011;17581;43.222;27.924;2022-12-29T05:58:11;43.83;;;14.98;;
30874;SDS011;17581;43.222;27.924;2022-12-29T06:00:36;47.90;;;16.50;;
30874;SDS011;17581;43.222;27.924;2022-12-29T06:03:02;47.05;;;16.23;;
30874;SDS011;17581;43.222;27.924;2022-12-29T06:05:28;48.28;;;15.88;;
30874;SDS011;17581;43.222;27.924;2022-12-29T06:07:53;38.53;;;13.40;;
30874;SDS011;17581;43.222;27.924;2022-12-29T06:10:19;57.67;;;16.48;;
30874;SDS011;17581;43.222;27.924;2022-12-29T06:12:44;47.22;;;15.13;;
30874;SDS011;17581;43.222;27.924;2022-12-29T06:15:10;53.42;;;15.80;;
30874;SDS011;17581;43.222;27.924;2022-12-29T06:17:35;54.42;;;15.20;;
30874;SDS011;17581;43.222;27.924;2022-12-29T06:20:01;48.40;;;15.18;;
30874;SDS011;17581;43.222;27.924;2022-12-29T06:22:27;66.07;;;16.30;;
30874;SDS011;17581;43.222;27.924;2022-12-29T06:24:53;193.20;;;23.13;;
30874;SDS011;17581;43.222;27.924;2022-12-29T06:27:18;87.10;;;16.60;;
30874;SDS011;17581;43.222;27.924;2022-12-29T06:29:44;63.72;;;16.88;;
30874;SDS011;17581;43.222;27.924;2022-12-29T06:32:09;77.72;;;17.17;;
30874;SDS011;17581;43.222;27.924;2022-12-29T06:34:35;59.30;;;16.73;;
30874;SDS011;17581;43.222;27.924;2022-12-29T06:37:01;50.50;;;15.23;;
30874;SDS011;17581;43.222;27.924;2022-12-29T06:39:27;61.03;;;15.13;;
30874;SDS011;17581;43.222;27.924;2022-12-29T06:41:52;46.00;;;15.73;;
30874;SDS011;17581;43.222;27.924;2022-12-29T06:44:19;77.40;;;19.17;;
30874;SDS011;17581;43.222;27.924;2022-12-29T06:46:45;52.45;;;15.23;;
30874;SDS011;17581;43.222;27.924;2022-12-29T06:49:11;55.05;;;18.33;;
30874;SDS011;17581;43.222;27.924;2022-12-29T06:51:36;39.95;;;14.13;;
30874;SDS011;17581;43.222;27.924;2022-12-29T06:54:02;39.88;;;13.30;;
30874;SDS011;17581;43.222;27.924;2022-12-29T06:56:27;49.90;;;13.77;;
30874;SDS011;17581;43.222;27.924;2022-12-29T06:58:53;57.38;;;15.73;;
30874;SDS011;17581;43.222;27.924;2022-12-29T07:01:18;30.50;;;12.10;;
30874;SDS011;17581;43.222;27.924;2022-12-29T07:03:44;24.25;;;9.88;;
30874;SDS011;17581;43.222;27.924;2022-12-29T07:06:09;40.55;;;11.48;;
30874;SDS011;17581;43.222;27.924;2022-12-29T07:08:35;24.17;;;9.43;;
30874;SDS011;17581;43.222;27.924;2022-12-29T07:11:00;32.08;;;8.73;;
30874;SDS011;17581;43.222;27.924;2022-12-29T07:13:25;38.67;;;10.57;;
30874;SDS011;17581;43.222;27.924;2022-12-29T07:15:51;24.90;;;7.15;;
30874;SDS011;17581;43.222;27.924;2022-12-29T07:18:16;33.60;;;10.85;;
30874;SDS011;17581;43.222;27.924;2022-12-29T07:20:42;47.05;;;9.77;;
30874;SDS011;17581;43.222;27.924;2022-12-29T07:23:07;23.00;;;7.40;;
30874;SDS011;17581;43.222;27.924;2022-12-29T07:25:33;21.90;;;6.97;;
30874;SDS011;17581;43.222;27.924;2022-12-29T07:28:01;29.00;;;7.25;;
30874;SDS011;17581;43.222;27.924;2022-12-29T07:30:27;20.00;;;7.82;;
30874;SDS011;17581;43.222;27.924;2022-12-29T07:32:53;53.33;;;11.32;;
30874;SDS011;17581;43.222;27.924;2022-12-29T07:35:18;33.58;;;12.70;;
30874;SDS011;17581;43.222;27.924;2022-12-29T07:37:44;18.63;;;6.60;;
30874;SDS011;17581;43.222;27.924;2022-12-29T07:40:10;11.35;;;5.07;;
30874;SDS011;17581;43.222;27.924;2022-12-29T07:42:36;20.92;;;7.28;;
30874;SDS011;17581;43.222;27.924;2022-12-29T07:45:02;39.05;;;10.40;;
30874;SDS011;17581;43.222;27.924;2022-12-29T07:47:27;32.95;;;9.23;;
30874;SDS011;17581;43.222;27.924;2022-12-29T07:49:53;36.40;;;8.32;;
30874;SDS011;17581;43.222;27.924;2022-12-29T07:52:18;33.25;;;8.35;;
30874;SDS011;17581;43.222;27.924;2022-12-29T07:54:44;40.15;;;11.18;;
30874;SDS011;17581;43.222;27.924;2022-12-29T07:57:10;40.30;;;12.73;;
30874;SDS011;17581;43.222;27.924;2022-12-29T07:59:35;39.95;;;12.55;;
30874;SDS011;17581;43.222;27.924;2022-12-29T08:02:01;44.33;;;12.98;;
30874;SDS011;17581;43.222;27.924;2022-12-29T08:04:26;36.15;;;8.75;;
30874;SDS011;17581;43.222;27.924;2022-12-29T08:06:52;42.38;;;10.07;;
30874;SDS011;17581;43.222;27.924;2022-12-29T08:09:17;23.88;;;7.88;;
30874;SDS011;17581;43.222;27.924;2022-12-29T08:11:43;21.23;;;6.88;;
30874;SDS011;17581;43.222;27.924;2022-12-29T08:14:09;30.73;;;9.43;;
30874;SDS011;17581;43.222;27.924;2022-12-29T08:16:34;27.15;;;8.43;;
30874;SDS011;17581;43.222;27.924;2022-12-29T08:19:00;40.05;;;12.65;;
30874;SDS011;17581;43.222;27.924;2022-12-29T08:21:29;40.75;;;16.10;;
30874;SDS011;17581;43.222;27.924;2022-12-29T08:23:54;34.38;;;8.25;;
30874;SDS011;17581;43.222;27.924;2022-12-29T08:26:20;35.00;;;11.18;;
30874;SDS011;17581;43.222;27.924;2022-12-29T08:28:46;30.33;;;12.45;;
30874;SDS011;17581;43.222;27.924;2022-12-29T08:31:12;31.58;;;10.82;;
30874;SDS011;17581;43.222;27.924;2022-12-29T08:33:37;28.65;;;13.93;;
30874;SDS011;17581;43.222;27.924;2022-12-29T08:36:03;42.00;;;12.10;;
30874;SDS011;17581;43.222;27.924;2022-12-29T08:38:31;36.88;;;15.55;;
30874;SDS011;17581;43.222;27.924;2022-12-29T08:40:57;37.30;;;15.90;;
30874;SDS011;17581;43.222;27.924;2022-12-29T08:43:24;35.78;;;12.43;;
30874;SDS011;17581;43.222;27.924;2022-12-29T08:45:49;48.17;;;13.20;;
30874;SDS011;17581;43.222;27.924;2022-12-29T08:48:15;23.23;;;11.70;;
30874;SDS011;17581;43.222;27.924;2022-12-29T08:50:44;35.05;;;13.75;;
30874;SDS011;17581;43.222;27.924;2022-12-29T08:53:11;26.05;;;12.10;;
30874;SDS011;17581;43.222;27.924;2022-12-29T08:55:36;36.72;;;16.38;;
30874;SDS011;17581;43.222;27.924;2022-12-29T08:58:02;21.40;;;10.05;;
30874;SDS011;17581;43.222;27.924;2022-12-29T09:00:27;23.65;;;11.63;;
30874;SDS011;17581;43.222;27.924;2022-12-29T09:02:53;37.15;;;11.10;;
30874;SDS011;17581;43.222;27.924;2022-12-29T09:05:18;31.50;;;12.02;;
30874;SDS011;17581;43.222;27.924;2022-12-29T09:07:44;23.42;;;11.15;;
30874;SDS011;17581;43.222;27.924;2022-12-29T09:10:09;23.70;;;10.18;;
30874;SDS011;17581;43.222;27.924;2022-12-29T09:12:35;13.95;;;5.60;;
30874;SDS011;17581;43.222;27.924;2022-12-29T09:15:00;17.02;;;7.68;;
30874;SDS011;17581;43.222;27.924;2022-12-29T09:17:26;53.85;;;10.95;;
30874;SDS011;17581;43.222;27.924;2022-12-29T09:20:11;31.10;;;11.65;;
30874;SDS011;17581;43.222;27.924;2022-12-29T09:22:38;39.22;;;10.75;;
30874;SDS011;17581;43.222;27.924;2022-12-29T09:25:04;23.35;;;9.30;;
30874;SDS011;17581;43.222;27.924;2022-12-29T09:27:30;22.23;;;10.07;;
30874;SDS011;17581;43.222;27.924;2022-12-29T09:29:55;26.58;;;9.95;;
30874;SDS011;17581;43.222;27.924;2022-12-29T09:32:21;12.40;;;5.70;;
30874;SDS011;17581;43.222;27.924;2022-12-29T09:34:47;27.08;;;7.60;;
30874;SDS011;17581;43.222;27.924;2022-12-29T09:37:12;17.17;;;8.32;;
30874;SDS011;17581;43.222;27.924;2022-12-29T09:39:38;39.78;;;10.73;;
30874;SDS011;17581;43.222;27.924;2022-12-29T09:42:06;17.70;;;9.05;;
30874;SDS011;17581;43.222;27.924;2022-12-29T09:47:42;13.77;;;7.13;;
30874;SDS011;17581;43.222;27.924;2022-12-29T09:50:23;22.05;;;8.13;;
30874;SDS011;17581;43.222;27.924;2022-12-29T09:52:55;26.80;;;7.80;;
30874;SDS011;17581;43.222;27.924;2022-12-29T09:55:23;20.35;;;9.13;;
30874;SDS011;17581;43.222;27.924;2022-12-29T09:57:59;28.58;;;10.00;;
30874;SDS011;17581;43.222;27.924;2022-12-29T10:03:19;22.13;;;9.68;;
30874;SDS011;17581;43.222;27.924;2022-12-29T10:05:48;36.42;;;9.98;;
30874;SDS011;17581;43.222;27.924;2022-12-29T10:10:56;22.90;;;9.23;;
30874;SDS011;17581;43.222;27.924;2022-12-29T10:24:45;18.25;;;9.05;;
30874;SDS011;17581;43.222;27.924;2022-12-29T10:27:14;22.30;;;9.25;;
30874;SDS011;17581;43.222;27.924;2022-12-29T10:29:49;24.73;;;10.13;;
30874;SDS011;17581;43.222;27.924;2022-12-29T10:32:34;30.90;;;11.27;;
30874;SDS011;17581;43.222;27.924;2022-12-29T10:35:05;15.95;;;9.38;;
30874;SDS011;17581;43.222;27.924;2022-12-29T10:37:58;24.30;;;11.55;;
30874;SDS011;17581;43.222;27.924;2022-12-29T10:40:29;26.27;;;10.60;;
30874;SDS011;17581;43.222;27.924;2022-12-29T10:43:03;29.40;;;11.40;;
30874;SDS011;17581;43.222;27.924;2022-12-29T10:45:39;22.95;;;11.27;;
30874;SDS011;17581;43.222;27.924;2022-12-29T10:48:08;32.85;;;12.32;;
30874;SDS011;17581;43.222;27.924;2022-12-29T10:50:36;22.63;;;11.63;;
30874;SDS011;17581;43.222;27.924;2022-12-29T10:53:07;39.45;;;12.65;;
30874;SDS011;17581;43.222;27.924;2022-12-29T10:55:42;43.70;;;17.30;;
30874;SDS011;17581;43.222;27.924;2022-12-29T10:58:10;50.72;;;13.15;;
30874;SDS011;17581;43.222;27.924;2022-12-29T11:00:38;31.58;;;11.68;;
30874;SDS011;17581;43.222;27.924;2022-12-29T11:08:28;41.05;;;11.70;;
30874;SDS011;17581;43.222;27.924;2022-12-29T11:11:01;28.20;;;11.80;;
30874;SDS011;17581;43.222;27.924;2022-12-29T11:13:33;26.83;;;10.80;;
30874;SDS011;17581;43.222;27.924;2022-12-29T11:16:12;23.33;;;11.60;;
30874;SDS011;17581;43.222;27.924;2022-12-29T11:18:38;20.63;;;9.65;;
30874;SDS011;17581;43.222;27.924;2022-12-29T11:21:06;35.88;;;10.70;;
30874;SDS011;17581;43.222;27.924;2022-12-29T11:23:54;17.23;;;8.98;;
30874;SDS011;17581;43.222;27.924;2022-12-29T11:26:30;24.88;;;9.85;;
30874;SDS011;17581;43.222;27.924;2022-12-29T11:31:44;21.30;;;9.32;;
30874;SDS011;17581;43.222;27.924;2022-12-29T11:34:18;19.95;;;8.20;;
30874;SDS011;17581;43.222;27.924;2022-12-29T11:37:24;14.73;;;8.40;;
30874;SDS011;17581;43.222;27.924;2022-12-29T11:42:42;26.33;;;10.50;;
30874;SDS011;17581;43.222;27.924;2022-12-29T11:45:17;25.27;;;9.52;;
30874;SDS011;17581;43.222;27.924;2022-12-29T11:47:56;30.17;;;12.43;;
30874;SDS011;17581;43.222;27.924;2022-12-29T11:50:42;26.83;;;9.80;;
30874;SDS011;17581;43.222;27.924;2022-12-29T11:55:56;30.27;;;10.32;;
30874;SDS011;17581;43.222;27.924;2022-12-29T11:58:42;25.88;;;10.27;;
30874;SDS011;17581;43.222;27.924;2022-12-29T12:06:23;24.85;;;10.45;;
30874;SDS011;17581;43.222;27.924;2022-12-29T12:11:26;19.17;;;8.85;;
30874;SDS011;17581;43.222;27.924;2022-12-29T12:16:50;24.92;;;9.75;;
30874;SDS011;17581;43.222;27.924;2022-12-29T12:21:50;24.90;;;9.80;;
30874;SDS011;17581;43.222;27.924;2022-12-29T12:30:04;33.88;;;10.23;;
30874;SDS011;17581;43.222;27.924;2022-12-29T12:35:26;25.65;;;10.05;;
30874;SDS011;17581;43.222;27.924;2022-12-29T13:02:01;30.95;;;8.68;;
30874;SDS011;17581;43.222;27.924;2022-12-29T13:10:12;19.98;;;9.45;;
30874;SDS011;17581;43.222;27.924;2022-12-29T13:15:42;47.00;;;11.07;;
30874;SDS011;17581;43.222;27.924;2022-12-29T13:20:54;25.13;;;9.30;;
30874;SDS011;17581;43.222;27.924;2022-12-29T13:23:41;35.63;;;12.55;;
30874;SDS011;17581;43.222;27.924;2022-12-29T13:26:20;26.33;;;10.02;;
30874;SDS011;17581;43.222;27.924;2022-12-29T13:37:15;28.92;;;11.05;;
30874;SDS011;17581;43.222;27.924;2022-12-29T13:42:21;34.85;;;11.65;;
30874;SDS011;17581;43.222;27.924;2022-12-29T13:44:59;24.73;;;10.02;;
30874;SDS011;17581;43.222;27.924;2022-12-29T13:47:33;34.33;;;12.25;;
30874;SDS011;17581;43.222;27.924;2022-12-29T13:50:13;29.70;;;11.40;;
30874;SDS011;17581;43.222;27.924;2022-12-29T14:03:48;42.58;;;15.20;;
30874;SDS011;17581;43.222;27.924;2022-12-29T14:06:21;39.70;;;13.90;;
30874;SDS011;17581;43.222;27.924;2022-12-29T14:09:02;34.35;;;13.90;;
30874;SDS011;17581;43.222;27.924;2022-12-29T14:11:31;47.63;;;17.73;;
30874;SDS011;17581;43.222;27.924;2022-12-29T14:13:59;48.40;;;16.10;;
30874;SDS011;17581;43.222;27.924;2022-12-29T14:16:37;39.67;;;16.35;;
30874;SDS011;17581;43.222;27.924;2022-12-29T14:19:05;38.22;;;15.13;;
30874;SDS011;17581;43.222;27.924;2022-12-29T14:21:36;34.33;;;14.82;;
30874;SDS011;17581;43.222;27.924;2022-12-29T14:26:56;44.65;;;16.60;;
30874;SDS011;17581;43.222;27.924;2022-12-29T14:31:50;76.75;;;21.58;;
30874;SDS011;17581;43.222;27.924;2022-12-29T14:34:29;38.33;;;15.95;;
30874;SDS011;17581;43.222;27.924;2022-12-29T14:37:02;37.15;;;14.65;;
30874;SDS011;17581;43.222;27.924;2022-12-29T14:39:30;59.88;;;17.30;;
30874;SDS011;17581;43.222;27.924;2022-12-29T14:44:34;55.88;;;26.00;;
30874;SDS011;17581;43.222;27.924;2022-12-29T14:47:38;58.70;;;16.40;;
30874;SDS011;17581;43.222;27.924;2022-12-29T14:53:05;45.08;;;19.85;;
30874;SDS011;17581;43.222;27.924;2022-12-29T14:58:05;37.42;;;16.90;;
30874;SDS011;17581;43.222;27.924;2022-12-29T15:00:39;44.78;;;18.27;;
30874;SDS011;17581;43.222;27.924;2022-12-29T15:08:05;38.28;;;17.08;;
30874;SDS011;17581;43.222;27.924;2022-12-29T15:10:34;42.67;;;16.73;;
30874;SDS011;17581;43.222;27.924;2022-12-29T15:13:08;41.00;;;17.20;;
30874;SDS011;17581;43.222;27.924;2022-12-29T15:15:40;48.20;;;18.60;;
30874;SDS011;17581;43.222;27.924;2022-12-29T15:18:22;48.70;;;18.13;;
30874;SDS011;17581;43.222;27.924;2022-12-29T15:20:51;81.10;;;35.00;;
30874;SDS011;17581;43.222;27.924;2022-12-29T15:23:19;53.75;;;18.73;;
30874;SDS011;17581;43.222;27.924;2022-12-29T15:25:55;68.60;;;24.48;;
30874;SDS011;17581;43.222;27.924;2022-12-29T15:28:23;54.05;;;24.52;;
30874;SDS011;17581;43.222;27.924;2022-12-29T15:30:54;64.57;;;31.63;;
30874;SDS011;17581;43.222;27.924;2022-12-29T15:33:22;74.65;;;33.90;;
30874;SDS011;17581;43.222;27.924;2022-12-29T15:35:51;62.63;;;27.88;;
30874;SDS011;17581;43.222;27.924;2022-12-29T15:38:36;69.90;;;29.33;;
30874;SDS011;17581;43.222;27.924;2022-12-29T15:41:24;74.80;;;33.70;;
30874;SDS011;17581;43.222;27.924;2022-12-29T15:43:53;95.47;;;34.78;;
30874;SDS011;17581;43.222;27.924;2022-12-29T15:46:29;90.40;;;34.70;;
30874;SDS011;17581;43.222;27.924;2022-12-29T15:48:55;71.60;;;31.70;;
30874;SDS011;17581;43.222;27.924;2022-12-29T15:51:24;76.32;;;33.42;;
30874;SDS011;17581;43.222;27.924;2022-12-29T15:53:58;91.22;;;30.90;;
30874;SDS011;17581;43.222;27.924;2022-12-29T15:56:24;84.20;;;30.10;;
30874;SDS011;17581;43.222;27.924;2022-12-29T15:58:53;66.78;;;33.58;;
30874;SDS011;17581;43.222;27.924;2022-12-29T16:01:39;74.15;;;36.20;;
30874;SDS011;17581;43.222;27.924;2022-12-29T16:04:05;95.82;;;38.70;;
30874;SDS011;17581;43.222;27.924;2022-12-29T16:06:36;96.10;;;37.03;;
30874;SDS011;17581;43.222;27.924;2022-12-29T16:09:15;93.75;;;39.25;;
30874;SDS011;17581;43.222;27.924;2022-12-29T16:11:56;87.55;;;37.20;;
30874;SDS011;17581;43.222;27.924;2022-12-29T16:14:27;94.80;;;40.22;;
30874;SDS011;17581;43.222;27.924;2022-12-29T16:16:59;113.05;;;44.67;;
30874;SDS011;17581;43.222;27.924;2022-12-29T16:19:35;100.60;;;41.47;;
30874;SDS011;17581;43.222;27.924;2022-12-29T16:22:08;110.05;;;43.13;;
30874;SDS011;17581;43.222;27.924;2022-12-29T16:24:42;113.18;;;45.70;;
30874;SDS011;17581;43.222;27.924;2022-12-29T16:27:19;119.68;;;49.42;;
30874;SDS011;17581;43.222;27.924;2022-12-29T16:29:48;131.77;;;57.95;;
30874;SDS011;17581;43.222;27.924;2022-12-29T16:32:23;120.85;;;48.15;;
30874;SDS011;17581;43.222;27.924;2022-12-29T16:37:43;134.55;;;49.30;;
30874;SDS011;17581;43.222;27.924;2022-12-29T16:40:29;111.15;;;40.90;;
30874;SDS011;17581;43.222;27.924;2022-12-29T16:42:56;93.43;;;38.72;;
30874;SDS011;17581;43.222;27.924;2022-12-29T16:50:31;142.82;;;43.10;;
30874;SDS011;17581;43.222;27.924;2022-12-29T16:52:59;131.20;;;52.15;;
30874;SDS011;17581;43.222;27.924;2022-12-29T16:55:25;108.45;;;47.00;;
30874;SDS011;17581;43.222;27.924;2022-12-29T16:57:52;98.30;;;45.28;;
30874;SDS011;17581;43.222;27.924;2022-12-29T17:00:22;121.72;;;46.60;;
30874;SDS011;17581;43.222;27.924;2022-12-29T17:02:50;100.57;;;43.20;;
30874;SDS011;17581;43.222;27.924;2022-12-29T17:05:18;102.07;;;44.75;;
30874;SDS011;17581;43.222;27.924;2022-12-29T17:07:44;142.98;;;50.97;;
30874;SDS011;17581;43.222;27.924;2022-12-29T17:10:10;137.35;;;59.65;;
30874;SDS011;17581;43.222;27.924;2022-12-29T17:12:37;125.22;;;55.40;;
30874;SDS011;17581;43.222;27.924;2022-12-29T17:15:04;126.40;;;61.10;;
30874;SDS011;17581;43.222;27.924;2022-12-29T17:17:36;145.95;;;71.50;;
30874;SDS011;17581;43.222;27.924;2022-12-29T17:20:15;160.00;;;70.53;;
30874;SDS011;17581;43.222;27.924;2022-12-29T17:22:40;166.00;;;74.60;;
30874;SDS011;17581;43.222;27.924;2022-12-29T17:25:06;190.95;;;80.95;;
30874;SDS011;17581;43.222;27.924;2022-12-29T17:27:36;141.93;;;67.78;;
30874;SDS011;17581;43.222;27.924;2022-12-29T17:30:15;133.82;;;65.45;;
30874;SDS011;17581;43.222;27.924;2022-12-29T17:32:45;120.07;;;50.80;;